Altro, Kentucky
Current Conditions -  °F | °C
As of 2:53 PM on Tuesday 21 Oct 2014 (Local Time) from KJKL Reporting Station
Overcast Overcast  
Wind Chill: 54°   Ceiling: 4800
Heat Index: 54°   Visibility: 10mi
Dew Point: 38°   Wind: 6mph
Humidity: 55%   Direction: 290°WNW
Pressure: 30.01"   Gusts: 17mph
Location:  37.532°N, 83.3068°W
Report Text: KJKL 211853Z AUTO 29005G15KT 10SM FEW038 OVC048 12/03 A3001 RMK AO2 SLP160 T01220033
Loading
Personal Weather Stations






























Interactive Weather Map
Tropical Storm Tracking
New forecast layout! Learn more

10-Day Weather Forecast

Advertisements
Track Severe Weather on mobile